sensor_id;sensor_type;location;lat;lon;timestamp;pressure;altitude;pressure_sealevel;temperature;humidity
77939;BME280;67136;47.546;21.630;2023-05-07T00:00:40;100186.28;;;15.12;88.46
77939;BME280;67136;47.546;21.630;2023-05-07T00:03:47;100194.50;;;15.09;88.29
77939;BME280;67136;47.546;21.630;2023-05-07T00:06:53;100207.72;;;15.17;86.76
77939;BME280;67136;47.546;21.630;2023-05-07T00:09:58;100212.31;;;15.15;87.46
77939;BME280;67136;47.546;21.630;2023-05-07T00:13:13;100211.31;;;15.16;88.29
77939;BME280;67136;47.546;21.630;2023-05-07T00:16:34;100196.16;;;15.10;89.17
77939;BME280;67136;47.546;21.630;2023-05-07T00:19:48;100198.44;;;15.05;92.51
77939;BME280;67136;47.546;21.630;2023-05-07T00:23:07;100211.28;;;15.08;90.62
77939;BME280;67136;47.546;21.630;2023-05-07T00:26:15;100216.34;;;15.01;90.91
77939;BME280;67136;47.546;21.630;2023-05-07T00:29:26;100218.47;;;14.98;90.51
77939;BME280;67136;47.546;21.630;2023-05-07T00:32:41;100223.37;;;14.92;91.33
77939;BME280;67136;47.546;21.630;2023-05-07T00:35:55;100238.50;;;14.90;92.02
77939;BME280;67136;47.546;21.630;2023-05-07T00:39:09;100229.06;;;14.80;93.19
77939;BME280;67136;47.546;21.630;2023-05-07T00:42:19;100240.34;;;14.72;93.88
77939;BME280;67136;47.546;21.630;2023-05-07T00:45:27;100231.19;;;14.59;95.51
77939;BME280;67136;47.546;21.630;2023-05-07T00:48:40;100232.63;;;14.53;96.34
77939;BME280;67136;47.546;21.630;2023-05-07T00:52:09;100234.91;;;14.48;96.71
77939;BME280;67136;47.546;21.630;2023-05-07T00:55:35;100236.72;;;14.48;97.53
77939;BME280;67136;47.546;21.630;2023-05-07T00:58:44;100228.16;;;14.46;97.34
77939;BME280;67136;47.546;21.630;2023-05-07T01:01:53;100222.41;;;14.50;97.46
77939;BME280;67136;47.546;21.630;2023-05-07T01:05:16;100226.41;;;14.54;97.30
77939;BME280;67136;47.546;21.630;2023-05-07T01:08:23;100234.00;;;14.57;96.89
77939;BME280;67136;47.546;21.630;2023-05-07T01:11:34;100232.03;;;14.59;97.12
77939;BME280;67136;47.546;21.630;2023-05-07T01:14:44;100231.03;;;14.60;96.41
77939;BME280;67136;47.546;21.630;2023-05-07T01:17:58;100224.97;;;14.60;96.55
77939;BME280;67136;47.546;21.630;2023-05-07T01:21:07;100218.56;;;14.62;95.94
77939;BME280;67136;47.546;21.630;2023-05-07T01:24:16;100218.19;;;14.57;95.73
77939;BME280;67136;47.546;21.630;2023-05-07T01:27:36;100223.63;;;14.56;95.33
77939;BME280;67136;47.546;21.630;2023-05-07T01:30:57;100224.75;;;14.53;95.14
77939;BME280;67136;47.546;21.630;2023-05-07T01:34:28;100227.37;;;14.53;95.00
77939;BME280;67136;47.546;21.630;2023-05-07T01:37:44;100221.16;;;14.54;94.17
77939;BME280;67136;47.546;21.630;2023-05-07T01:40:58;100228.62;;;14.67;92.32
77939;BME280;67136;47.546;21.630;2023-05-07T01:44:09;100220.88;;;14.65;92.53
77939;BME280;67136;47.546;21.630;2023-05-07T01:47:24;100220.72;;;14.67;92.30
77939;BME280;67136;47.546;21.630;2023-05-07T01:50:44;100215.81;;;14.72;90.96
77939;BME280;67136;47.546;21.630;2023-05-07T01:53:54;100216.34;;;14.75;90.72
77939;BME280;67136;47.546;21.630;2023-05-07T01:57:12;100212.06;;;14.74;90.98
77939;BME280;67136;47.546;21.630;2023-05-07T02:00:22;100205.12;;;14.73;90.19
77939;BME280;67136;47.546;21.630;2023-05-07T02:03:33;100210.72;;;14.70;90.34
77939;BME280;67136;47.546;21.630;2023-05-07T02:06:47;100214.66;;;14.66;90.80
77939;BME280;67136;47.546;21.630;2023-05-07T02:09:58;100210.03;;;14.68;90.89
77939;BME280;67136;47.546;21.630;2023-05-07T02:13:10;100209.41;;;14.66;90.64
77939;BME280;67136;47.546;21.630;2023-05-07T02:16:22;100204.78;;;14.68;90.11
77939;BME280;67136;47.546;21.630;2023-05-07T02:19:29;100201.50;;;14.66;90.66
77939;BME280;67136;47.546;21.630;2023-05-07T02:22:45;100200.81;;;14.64;90.59
77939;BME280;67136;47.546;21.630;2023-05-07T02:25:50;100201.19;;;14.69;89.97
77939;BME280;67136;47.546;21.630;2023-05-07T02:29:02;100198.88;;;14.66;90.19
77939;BME280;67136;47.546;21.630;2023-05-07T02:32:20;100193.09;;;14.63;90.56
77939;BME280;67136;47.546;21.630;2023-05-07T02:35:32;100199.84;;;14.65;89.91
77939;BME280;67136;47.546;21.630;2023-05-07T02:38:53;100203.09;;;14.59;90.42
77939;BME280;67136;47.546;21.630;2023-05-07T02:41:58;100201.75;;;14.55;90.89
77939;BME280;67136;47.546;21.630;2023-05-07T02:45:16;100204.00;;;14.50;90.82
77939;BME280;67136;47.546;21.630;2023-05-07T02:48:24;100207.94;;;14.46;91.16
77939;BME280;67136;47.546;21.630;2023-05-07T02:51:30;100205.44;;;14.45;91.16
77939;BME280;67136;47.546;21.630;2023-05-07T02:54:41;100202.97;;;14.43;91.29
77939;BME280;67136;47.546;21.630;2023-05-07T02:58:02;100204.62;;;14.44;91.48
77939;BME280;67136;47.546;21.630;2023-05-07T03:01:17;100206.44;;;14.44;91.20
77939;BME280;67136;47.546;21.630;2023-05-07T03:04:25;100213.47;;;14.43;91.34
77939;BME280;67136;47.546;21.630;2023-05-07T03:07:43;100218.38;;;14.38;91.36
77939;BME280;67136;47.546;21.630;2023-05-07T03:11:22;100230.87;;;14.36;91.87
77939;BME280;67136;47.546;21.630;2023-05-07T03:14:38;100220.63;;;14.33;91.88
77939;BME280;67136;47.546;21.630;2023-05-07T03:17:48;100228.53;;;14.33;91.76
77939;BME280;67136;47.546;21.630;2023-05-07T03:21:06;100230.19;;;14.34;91.83
77939;BME280;67136;47.546;21.630;2023-05-07T03:24:15;100236.41;;;14.33;92.05
77939;BME280;67136;47.546;21.630;2023-05-07T03:27:27;100237.41;;;14.32;92.11
77939;BME280;67136;47.546;21.630;2023-05-07T03:30:46;100240.03;;;14.32;92.20
77939;BME280;67136;47.546;21.630;2023-05-07T03:34:07;100248.91;;;14.31;92.43
77939;BME280;67136;47.546;21.630;2023-05-07T03:37:27;100242.97;;;14.29;92.76
77939;BME280;67136;47.546;21.630;2023-05-07T03:40:50;100251.84;;;14.28;92.88
77939;BME280;67136;47.546;21.630;2023-05-07T03:44:06;100251.84;;;14.28;92.78
77939;BME280;67136;47.546;21.630;2023-05-07T03:47:15;100252.12;;;14.25;92.20
77939;BME280;67136;47.546;21.630;2023-05-07T03:50:25;100258.75;;;14.29;91.99
77939;BME280;67136;47.546;21.630;2023-05-07T03:53:35;100256.12;;;14.29;91.59
77939;BME280;67136;47.546;21.630;2023-05-07T03:56:39;100258.59;;;14.31;90.72
77939;BME280;67136;47.546;21.630;2023-05-07T03:59:45;100261.75;;;14.34;90.81
77939;BME280;67136;47.546;21.630;2023-05-07T04:03:06;100258.16;;;14.35;90.25
77939;BME280;67136;47.546;21.630;2023-05-07T04:06:12;100267.56;;;14.38;89.86
77939;BME280;67136;47.546;21.630;2023-05-07T04:09:27;100270.19;;;14.38;89.84
77939;BME280;67136;47.546;21.630;2023-05-07T04:12:35;100267.09;;;14.42;90.00
77939;BME280;67136;47.546;21.630;2023-05-07T04:15:56;100271.37;;;14.43;90.03
77939;BME280;67136;47.546;21.630;2023-05-07T04:19:13;100279.94;;;14.45;90.43
77939;BME280;67136;47.546;21.630;2023-05-07T04:22:44;100283.25;;;14.47;90.45
77939;BME280;67136;47.546;21.630;2023-05-07T04:25:52;100282.94;;;14.50;90.38
77939;BME280;67136;47.546;21.630;2023-05-07T04:29:03;100282.62;;;14.53;90.48
77939;BME280;67136;47.546;21.630;2023-05-07T04:32:09;100289.88;;;14.51;90.01
77939;BME280;67136;47.546;21.630;2023-05-07T04:35:19;100290.09;;;14.58;90.07
77939;BME280;67136;47.546;21.630;2023-05-07T04:38:26;100293.63;;;14.66;89.58
77939;BME280;67136;47.546;21.630;2023-05-07T04:41:38;100293.53;;;14.76;89.08
77939;BME280;67136;47.546;21.630;2023-05-07T04:45:00;100294.94;;;14.88;88.58
77939;BME280;67136;47.546;21.630;2023-05-07T04:48:11;100300.44;;;15.03;88.46
77939;BME280;67136;47.546;21.630;2023-05-07T04:51:34;100292.31;;;15.14;87.96
77939;BME280;67136;47.546;21.630;2023-05-07T04:54:48;100296.28;;;15.18;87.36
77939;BME280;67136;47.546;21.630;2023-05-07T04:58:14;100300.97;;;15.32;87.41
77939;BME280;67136;47.546;21.630;2023-05-07T05:01:34;100293.50;;;15.45;86.98
77939;BME280;67136;47.546;21.630;2023-05-07T05:04:58;100297.75;;;15.46;86.40
77939;BME280;67136;47.546;21.630;2023-05-07T05:08:11;100306.38;;;15.56;85.44
77939;BME280;67136;47.546;21.630;2023-05-07T05:11:22;100303.12;;;15.62;84.78
77939;BME280;67136;47.546;21.630;2023-05-07T05:14:30;100304.25;;;15.59;84.48
77939;BME280;67136;47.546;21.630;2023-05-07T05:17:37;100306.44;;;15.64;85.19
77939;BME280;67136;47.546;21.630;2023-05-07T05:20:46;100299.25;;;15.82;84.40
77939;BME280;67136;47.546;21.630;2023-05-07T05:24:01;100318.84;;;15.79;84.29
77939;BME280;67136;47.546;21.630;2023-05-07T05:27:18;100315.91;;;15.82;84.00
77939;BME280;67136;47.546;21.630;2023-05-07T05:30:25;100315.09;;;15.90;83.99
77939;BME280;67136;47.546;21.630;2023-05-07T05:33:39;100308.88;;;15.99;83.61
77939;BME280;67136;47.546;21.630;2023-05-07T05:36:53;100320.69;;;15.87;83.48
77939;BME280;67136;47.546;21.630;2023-05-07T05:40:04;100325.47;;;15.91;83.47
77939;BME280;67136;47.546;21.630;2023-05-07T05:43:22;100318.50;;;16.16;82.05
77939;BME280;67136;47.546;21.630;2023-05-07T05:46:46;100325.13;;;16.36;82.19
77939;BME280;67136;47.546;21.630;2023-05-07T05:49:50;100326.44;;;16.40;81.32
77939;BME280;67136;47.546;21.630;2023-05-07T05:53:22;100320.56;;;16.54;80.60
77939;BME280;67136;47.546;21.630;2023-05-07T05:56:25;100329.31;;;16.71;80.34
77939;BME280;67136;47.546;21.630;2023-05-07T05:59:41;100328.47;;;16.62;80.87
77939;BME280;67136;47.546;21.630;2023-05-07T06:02:51;100339.28;;;16.35;80.51
77939;BME280;67136;47.546;21.630;2023-05-07T06:06:03;100354.25;;;16.18;81.98
77939;BME280;67136;47.546;21.630;2023-05-07T06:09:19;100378.12;;;16.01;83.70
77939;BME280;67136;47.546;21.630;2023-05-07T06:12:29;100375.84;;;15.72;86.20
77939;BME280;67136;47.546;21.630;2023-05-07T06:15:42;100388.72;;;15.50;88.32
77939;BME280;67136;47.546;21.630;2023-05-07T06:18:55;100386.28;;;15.13;91.07
77939;BME280;67136;47.546;21.630;2023-05-07T06:22:11;100387.16;;;14.96;91.36
77939;BME280;67136;47.546;21.630;2023-05-07T06:25:31;100389.41;;;14.73;91.55
77939;BME280;67136;47.546;21.630;2023-05-07T06:28:53;100397.97;;;14.75;91.90
77939;BME280;67136;47.546;21.630;2023-05-07T06:35:41;100392.87;;;14.56;93.51
77939;BME280;67136;47.546;21.630;2023-05-07T06:38:53;100392.50;;;14.24;93.40
77939;BME280;67136;47.546;21.630;2023-05-07T06:42:09;100394.72;;;14.19;93.55
77939;BME280;67136;47.546;21.630;2023-05-07T06:45:26;100385.78;;;14.12;93.19
77939;BME280;67136;47.546;21.630;2023-05-07T06:48:35;100386.22;;;14.08;93.37
77939;BME280;67136;47.546;21.630;2023-05-07T06:51:46;100382.84;;;14.15;93.76
77939;BME280;67136;47.546;21.630;2023-05-07T06:54:53;100382.28;;;14.21;92.94
77939;BME280;67136;47.546;21.630;2023-05-07T06:58:25;100372.81;;;14.28;93.42
77939;BME280;67136;47.546;21.630;2023-05-07T07:01:38;100360.50;;;14.29;92.66
77939;BME280;67136;47.546;21.630;2023-05-07T07:05:01;100367.00;;;14.34;91.67
77939;BME280;67136;47.546;21.630;2023-05-07T07:08:14;100363.59;;;14.42;92.46
77939;BME280;67136;47.546;21.630;2023-05-07T07:11:22;100362.87;;;14.49;90.29
77939;BME280;67136;47.546;21.630;2023-05-07T07:14:32;100377.81;;;14.49;90.46
77939;BME280;67136;47.546;21.630;2023-05-07T07:17:48;100365.50;;;14.49;89.72
77939;BME280;67136;47.546;21.630;2023-05-07T07:21:00;100367.00;;;14.52;89.50
77939;BME280;67136;47.546;21.630;2023-05-07T07:24:29;100367.91;;;14.60;89.38
77939;BME280;67136;47.546;21.630;2023-05-07T07:27:46;100368.94;;;14.67;88.65
77939;BME280;67136;47.546;21.630;2023-05-07T07:30:57;100363.16;;;14.81;89.59
77939;BME280;67136;47.546;21.630;2023-05-07T07:34:13;100364.34;;;15.05;88.54
77939;BME280;67136;47.546;21.630;2023-05-07T07:37:22;100360.84;;;15.22;87.65
77939;BME280;67136;47.546;21.630;2023-05-07T07:40:41;100361.72;;;15.56;85.16
77939;BME280;67136;47.546;21.630;2023-05-07T07:44:00;100369.50;;;15.91;85.97
77939;BME280;67136;47.546;21.630;2023-05-07T07:47:18;100362.84;;;16.21;83.89
77939;BME280;67136;47.546;21.630;2023-05-07T07:50:25;100365.09;;;16.57;83.70
77939;BME280;67136;47.546;21.630;2023-05-07T07:53:47;100365.13;;;16.73;79.33
77939;BME280;67136;47.546;21.630;2023-05-07T07:56:56;100364.97;;;16.91;80.25
77939;BME280;67136;47.546;21.630;2023-05-07T08:00:06;100370.09;;;17.08;76.93
77939;BME280;67136;47.546;21.630;2023-05-07T08:03:17;100375.34;;;17.32;78.63
77939;BME280;67136;47.546;21.630;2023-05-07T08:06:26;100367.66;;;17.78;77.17
77939;BME280;67136;47.546;21.630;2023-05-07T08:09:39;100366.16;;;17.83;77.06
77939;BME280;67136;47.546;21.630;2023-05-07T08:12:57;100365.00;;;19.37;71.57
77939;BME280;67136;47.546;21.630;2023-05-07T08:16:03;100357.31;;;20.15;66.39
77939;BME280;67136;47.546;21.630;2023-05-07T08:19:21;100357.22;;;21.01;63.47
77939;BME280;67136;47.546;21.630;2023-05-07T08:22:38;100355.78;;;21.26;63.03
77939;BME280;67136;47.546;21.630;2023-05-07T08:25:57;100362.22;;;22.67;59.57
77939;BME280;67136;47.546;21.630;2023-05-07T08:29:16;100362.13;;;22.41;58.67
77939;BME280;67136;47.546;21.630;2023-05-07T08:32:22;100363.66;;;22.02;57.16
77939;BME280;67136;47.546;21.630;2023-05-07T08:35:31;100352.81;;;22.77;55.37
77939;BME280;67136;47.546;21.630;2023-05-07T08:38:39;100360.22;;;23.27;54.18
77939;BME280;67136;47.546;21.630;2023-05-07T08:41:58;100348.72;;;23.01;53.45
77939;BME280;67136;47.546;21.630;2023-05-07T08:45:22;100349.94;;;23.24;52.41
77939;BME280;67136;47.546;21.630;2023-05-07T08:48:31;100360.00;;;22.90;51.14
77939;BME280;67136;47.546;21.630;2023-05-07T08:51:42;100352.41;;;23.00;51.25
77939;BME280;67136;47.546;21.630;2023-05-07T08:54:50;100354.66;;;23.03;51.67
77939;BME280;67136;47.546;21.630;2023-05-07T08:58:10;100352.63;;;23.18;50.95
77939;BME280;67136;47.546;21.630;2023-05-07T09:01:37;100355.44;;;24.32;47.87
77939;BME280;67136;47.546;21.630;2023-05-07T09:04:44;100344.47;;;23.90;48.61
77939;BME280;67136;47.546;21.630;2023-05-07T09:08:02;100350.50;;;25.23;47.87
77939;BME280;67136;47.546;21.630;2023-05-07T09:11:19;100347.56;;;25.49;46.82
77939;BME280;67136;47.546;21.630;2023-05-07T09:14:29;100356.44;;;25.00;46.19
77939;BME280;67136;47.546;21.630;2023-05-07T09:18:10;100335.34;;;25.35;44.72
77939;BME280;67136;47.546;21.630;2023-05-07T09:21:23;100340.78;;;26.07;41.87
77939;BME280;67136;47.546;21.630;2023-05-07T09:25:03;100346.22;;;26.60;38.38
77939;BME280;67136;47.546;21.630;2023-05-07T09:28:14;100346.72;;;27.10;37.10
77939;BME280;67136;47.546;21.630;2023-05-07T09:31:38;100342.25;;;25.85;38.71
77939;BME280;67136;47.546;21.630;2023-05-07T09:34:41;100339.13;;;26.65;38.53
77939;BME280;67136;47.546;21.630;2023-05-07T09:37:55;100342.53;;;26.43;38.47
77939;BME280;67136;47.546;21.630;2023-05-07T09:41:12;100338.69;;;26.39;37.17
77939;BME280;67136;47.546;21.630;2023-05-07T09:44:43;100330.88;;;28.34;33.39
77939;BME280;67136;47.546;21.630;2023-05-07T09:47:49;100335.44;;;28.05;32.55
77939;BME280;67136;47.546;21.630;2023-05-07T09:51:11;100338.50;;;27.97;32.14
77939;BME280;67136;47.546;21.630;2023-05-07T09:54:25;100340.62;;;27.95;32.85
77939;BME280;67136;47.546;21.630;2023-05-07T09:57:53;100348.91;;;28.33;31.81
77939;BME280;67136;47.546;21.630;2023-05-07T10:01:16;100337.81;;;27.90;33.51
77939;BME280;67136;47.546;21.630;2023-05-07T10:04:42;100339.38;;;29.03;31.73
77939;BME280;67136;47.546;21.630;2023-05-07T10:07:57;100343.06;;;28.97;32.19
77939;BME280;67136;47.546;21.630;2023-05-07T10:11:07;100336.25;;;29.61;31.18
77939;BME280;67136;47.546;21.630;2023-05-07T10:14:14;100331.56;;;29.18;31.13
77939;BME280;67136;47.546;21.630;2023-05-07T10:17:31;100336.53;;;30.03;30.14
77939;BME280;67136;47.546;21.630;2023-05-07T10:21:09;100329.84;;;28.79;31.08
77939;BME280;67136;47.546;21.630;2023-05-07T10:24:34;100321.59;;;30.17;29.77
77939;BME280;67136;47.546;21.630;2023-05-07T10:27:48;100308.94;;;31.96;26.27
77939;BME280;67136;47.546;21.630;2023-05-07T10:34:29;100301.50;;;32.68;26.14
77939;BME280;67136;47.546;21.630;2023-05-07T10:37:41;100317.12;;;30.06;28.95
77939;BME280;67136;47.546;21.630;2023-05-07T10:40:51;100307.97;;;33.37;25.45
77939;BME280;67136;47.546;21.630;2023-05-07T10:43:57;100307.69;;;31.62;27.88
77939;BME280;67136;47.546;21.630;2023-05-07T10:47:11;100309.81;;;31.54;27.39
77939;BME280;67136;47.546;21.630;2023-05-07T10:50:22;100318.97;;;31.12;28.39
77939;BME280;67136;47.546;21.630;2023-05-07T10:53:29;100321.03;;;30.68;27.95
77939;BME280;67136;47.546;21.630;2023-05-07T10:56:43;100310.34;;;32.13;26.68
77939;BME280;67136;47.546;21.630;2023-05-07T10:59:56;100308.56;;;33.09;25.22
77939;BME280;67136;47.546;21.630;2023-05-07T11:06:25;100298.28;;;34.82;24.21
77939;BME280;67136;47.546;21.630;2023-05-07T11:09:59;100300.78;;;31.34;27.77
77939;BME280;67136;47.546;21.630;2023-05-07T11:13:11;100300.25;;;33.79;25.06
77939;BME280;67136;47.546;21.630;2023-05-07T11:16:19;100292.25;;;33.29;25.45
77939;BME280;67136;47.546;21.630;2023-05-07T11:19:54;100286.38;;;34.73;23.98
77939;BME280;67136;47.546;21.630;2023-05-07T11:26:44;100283.66;;;29.59;30.61
77939;BME280;67136;47.546;21.630;2023-05-07T11:30:00;100284.69;;;32.26;27.66
77939;BME280;67136;47.546;21.630;2023-05-07T11:33:17;100275.53;;;32.57;26.10
77939;BME280;67136;47.546;21.630;2023-05-07T11:36:33;100276.19;;;29.87;29.03
77939;BME280;67136;47.546;21.630;2023-05-07T11:39:40;100266.97;;;30.05;28.95
77939;BME280;67136;47.546;21.630;2023-05-07T11:42:55;100265.66;;;30.97;27.44
77939;BME280;67136;47.546;21.630;2023-05-07T11:46:15;100265.22;;;29.12;30.36
77939;BME280;67136;47.546;21.630;2023-05-07T11:49:27;100263.66;;;31.19;27.96
77939;BME280;67136;47.546;21.630;2023-05-07T11:52:49;100259.53;;;32.81;25.69
77939;BME280;67136;47.546;21.630;2023-05-07T11:56:16;100261.56;;;33.54;25.30
77939;BME280;67136;47.546;21.630;2023-05-07T11:59:20;100261.09;;;33.42;24.72
77939;BME280;67136;47.546;21.630;2023-05-07T12:02:34;100256.06;;;31.16;26.88
77939;BME280;67136;47.546;21.630;2023-05-07T12:05:52;100256.44;;;30.30;28.58
77939;BME280;67136;47.546;21.630;2023-05-07T12:09:04;100247.31;;;30.36;29.34
77939;BME280;67136;47.546;21.630;2023-05-07T12:12:28;100242.69;;;31.36;27.38
77939;BME280;67136;47.546;21.630;2023-05-07T12:15:39;100236.44;;;28.96;30.36
77939;BME280;67136;47.546;21.630;2023-05-07T12:18:51;100236.13;;;30.22;28.88
77939;BME280;67136;47.546;21.630;2023-05-07T12:22:04;100230.97;;;33.43;24.48
77939;BME280;67136;47.546;21.630;2023-05-07T12:25:29;100229.19;;;33.72;24.93
77939;BME280;67136;47.546;21.630;2023-05-07T12:28:39;100229.97;;;30.59;28.73
77939;BME280;67136;47.546;21.630;2023-05-07T12:31:50;100227.78;;;28.94;31.36
77939;BME280;67136;47.546;21.630;2023-05-07T12:35:05;100231.16;;;28.07;33.31
77939;BME280;67136;47.546;21.630;2023-05-07T12:38:16;100242.53;;;29.47;30.99
77939;BME280;67136;47.546;21.630;2023-05-07T12:41:30;100241.47;;;27.98;32.84
77939;BME280;67136;47.546;21.630;2023-05-07T12:44:39;100242.81;;;29.67;30.49
77939;BME280;67136;47.546;21.630;2023-05-07T12:47:46;100241.25;;;29.33;30.95
77939;BME280;67136;47.546;21.630;2023-05-07T12:50:56;100237.84;;;28.21;33.13
77939;BME280;67136;47.546;21.630;2023-05-07T12:54:10;100241.66;;;26.95;34.22
77939;BME280;67136;47.546;21.630;2023-05-07T12:57:26;100243.03;;;27.09;34.85
77939;BME280;67136;47.546;21.630;2023-05-07T13:00:43;100244.00;;;26.79;35.21
77939;BME280;67136;47.546;21.630;2023-05-07T13:03:52;100245.59;;;27.27;35.36
77939;BME280;67136;47.546;21.630;2023-05-07T13:07:00;100240.50;;;29.37;31.94
77939;BME280;67136;47.546;21.630;2023-05-07T13:10:07;100235.56;;;28.46;33.13
77939;BME280;67136;47.546;21.630;2023-05-07T13:13:42;100229.63;;;26.21;37.16
77939;BME280;67136;47.546;21.630;2023-05-07T13:16:51;100224.88;;;25.03;40.44
77939;BME280;67136;47.546;21.630;2023-05-07T13:20:00;100220.25;;;24.12;43.27
77939;BME280;67136;47.546;21.630;2023-05-07T13:23:23;100226.28;;;23.94;44.95
77939;BME280;67136;47.546;21.630;2023-05-07T13:26:32;100232.53;;;24.19;43.63
77939;BME280;67136;47.546;21.630;2023-05-07T13:29:49;100222.06;;;23.80;45.91
77939;BME280;67136;47.546;21.630;2023-05-07T13:32:56;100221.38;;;23.91;46.28
77939;BME280;67136;47.546;21.630;2023-05-07T13:39:37;100200.78;;;23.61;46.94
77939;BME280;67136;47.546;21.630;2023-05-07T13:42:42;100208.72;;;23.23;47.36
77939;BME280;67136;47.546;21.630;2023-05-07T13:45:56;100200.94;;;23.08;47.61
77939;BME280;67136;47.546;21.630;2023-05-07T13:49:09;100201.38;;;24.63;44.18
77939;BME280;67136;47.546;21.630;2023-05-07T13:56:11;100195.44;;;23.67;46.98
77939;BME280;67136;47.546;21.630;2023-05-07T13:59:30;100196.78;;;23.25;47.91
77939;BME280;67136;47.546;21.630;2023-05-07T14:02:50;100201.22;;;23.95;46.23
77939;BME280;67136;47.546;21.630;2023-05-07T14:06:17;100202.63;;;24.04;46.00
77939;BME280;67136;47.546;21.630;2023-05-07T14:09:24;100202.91;;;24.27;45.89
77939;BME280;67136;47.546;21.630;2023-05-07T14:12:36;100202.34;;;24.43;45.52
77939;BME280;67136;47.546;21.630;2023-05-07T14:15:44;100217.16;;;23.71;47.33
77939;BME280;67136;47.546;21.630;2023-05-07T14:19:02;100229.44;;;23.21;48.22
77939;BME280;67136;47.546;21.630;2023-05-07T14:22:27;100235.56;;;23.41;47.75
77939;BME280;67136;47.546;21.630;2023-05-07T14:25:42;100241.56;;;23.17;48.72
77939;BME280;67136;47.546;21.630;2023-05-07T14:28:53;100244.03;;;22.21;51.55
77939;BME280;67136;47.546;21.630;2023-05-07T14:32:08;100242.97;;;22.08;51.90
77939;BME280;67136;47.546;21.630;2023-05-07T14:35:26;100252.75;;;21.88;52.73
77939;BME280;67136;47.546;21.630;2023-05-07T14:38:39;100255.28;;;21.62;54.36
77939;BME280;67136;47.546;21.630;2023-05-07T14:41:43;100257.25;;;21.47;54.82
77939;BME280;67136;47.546;21.630;2023-05-07T14:45:01;100258.03;;;21.41;54.59
77939;BME280;67136;47.546;21.630;2023-05-07T14:48:08;100274.34;;;21.25;55.76
77939;BME280;67136;47.546;21.630;2023-05-07T14:51:21;100275.50;;;20.95;55.23
77939;BME280;67136;47.546;21.630;2023-05-07T14:54:23;100291.97;;;20.35;60.78
77939;BME280;67136;47.546;21.630;2023-05-07T14:57:53;100309.56;;;19.71;65.64
77939;BME280;67136;47.546;21.630;2023-05-07T15:00:56;100332.56;;;19.27;70.78
77939;BME280;67136;47.546;21.630;2023-05-07T15:04:06;100331.84;;;18.59;74.13
77939;BME280;67136;47.546;21.630;2023-05-07T15:07:26;100307.00;;;17.05;85.04
77939;BME280;67136;47.546;21.630;2023-05-07T15:10:40;100284.53;;;16.21;89.47
77939;BME280;67136;47.546;21.630;2023-05-07T15:13:53;100293.41;;;16.28;87.69
77939;BME280;67136;47.546;21.630;2023-05-07T15:17:04;100293.75;;;16.17;89.89
77939;BME280;67136;47.546;21.630;2023-05-07T15:20:22;100292.03;;;15.92;88.15
77939;BME280;67136;47.546;21.630;2023-05-07T15:23:30;100296.12;;;15.45;87.25
77939;BME280;67136;47.546;21.630;2023-05-07T15:26:36;100298.59;;;15.46;85.35
77939;BME280;67136;47.546;21.630;2023-05-07T15:29:47;100311.59;;;15.40;87.37
77939;BME280;67136;47.546;21.630;2023-05-07T15:33:09;100311.78;;;15.46;86.38
77939;BME280;67136;47.546;21.630;2023-05-07T15:36:14;100313.81;;;15.52;87.35
77939;BME280;67136;47.546;21.630;2023-05-07T15:39:17;100314.69;;;15.69;88.20
77939;BME280;67136;47.546;21.630;2023-05-07T15:42:34;100310.88;;;15.38;83.50
77939;BME280;67136;47.546;21.630;2023-05-07T15:45:47;100307.00;;;15.42;85.31
77939;BME280;67136;47.546;21.630;2023-05-07T15:49:07;100317.41;;;15.51;84.77
77939;BME280;67136;47.546;21.630;2023-05-07T15:52:23;100313.56;;;15.46;85.10
77939;BME280;67136;47.546;21.630;2023-05-07T15:55:45;100321.97;;;15.41;82.07
77939;BME280;67136;47.546;21.630;2023-05-07T15:58:52;100331.75;;;15.31;82.30
77939;BME280;67136;47.546;21.630;2023-05-07T16:02:02;100341.16;;;15.34;82.71
77939;BME280;67136;47.546;21.630;2023-05-07T16:05:12;100337.53;;;15.35;81.76
77939;BME280;67136;47.546;21.630;2023-05-07T16:08:50;100338.09;;;15.21;80.93
77939;BME280;67136;47.546;21.630;2023-05-07T16:11:57;100341.06;;;15.18;80.64
77939;BME280;67136;47.546;21.630;2023-05-07T16:15:06;100329.41;;;15.03;79.33
77939;BME280;67136;47.546;21.630;2023-05-07T16:18:27;100332.91;;;14.85;80.16
77939;BME280;67136;47.546;21.630;2023-05-07T16:21:36;100332.75;;;14.87;79.38
77939;BME280;67136;47.546;21.630;2023-05-07T16:24:43;100328.09;;;14.81;78.85
77939;BME280;67136;47.546;21.630;2023-05-07T16:28:00;100330.00;;;14.71;78.06
77939;BME280;67136;47.546;21.630;2023-05-07T16:31:13;100331.47;;;14.73;79.39
77939;BME280;67136;47.546;21.630;2023-05-07T16:34:23;100333.16;;;14.74;78.14
77939;BME280;67136;47.546;21.630;2023-05-07T16:37:39;100338.13;;;14.77;77.41
77939;BME280;67136;47.546;21.630;2023-05-07T16:40:45;100356.03;;;14.56;74.62
77939;BME280;67136;47.546;21.630;2023-05-07T16:43:50;100348.22;;;14.64;74.77
77939;BME280;67136;47.546;21.630;2023-05-07T16:47:04;100345.34;;;14.40;73.37
77939;BME280;67136;47.546;21.630;2023-05-07T16:53:50;100351.50;;;14.31;72.76
77939;BME280;67136;47.546;21.630;2023-05-07T16:57:08;100349.50;;;14.16;72.42
77939;BME280;67136;47.546;21.630;2023-05-07T17:00:35;100362.59;;;13.98;71.21
77939;BME280;67136;47.546;21.630;2023-05-07T17:03:53;100363.88;;;13.94;70.69
77939;BME280;67136;47.546;21.630;2023-05-07T17:07:07;100376.41;;;13.73;70.84